DAL845 KMCO-KLAX
Flight info
| Callsign | DAL845 |
|---|---|
| Flight time | 5h 0m |
| Altitude | 30000 |
| Route | OSPRY1 REMIS Y280 LEV J86 ELP J50 SSO J4 WLVRN ESTWD HLYWD1 |
| Aircraft | A21N/M-SDE2E3FGHIRWXY/LB1 |
Departure
| Time | 2026-05-06 00:40 |
|---|---|
| Airport | Orlando International Airport (KMCO) |
Arrival
| Time | 2026-05-06 05:41 |
|---|---|
| Airport | Los Angeles International Airport (KLAX) |
| Time | Latitude | Longitude | Altitude | Speed | Heading |
|---|---|---|---|---|---|
| 2026-05-05 23:59 | 28.42877 | -81.29980 | 108 ft | 0 kts | 258° |
| 2026-05-06 00:24 | 28.42878 | -81.29977 | 108 ft | 3 kts | 260° |
| 2026-05-06 00:25 | 28.42876 | -81.29953 | 107 ft | 4 kts | 268° |
| 2026-05-06 00:25 | 28.42879 | -81.29923 | 107 ft | 4 kts | 252° |
| 2026-05-06 00:25 | 28.42892 | -81.29898 | 106 ft | 4 kts | 219° |
| 2026-05-06 00:25 | 28.42913 | -81.29889 | 105 ft | 2 kts | 172° |
| 2026-05-06 00:26 | 28.42919 | -81.29890 | 106 ft | 0 kts | 171° |
| 2026-05-06 00:30 | 28.42910 | -81.29879 | 106 ft | 3 kts | 99° |
| 2026-05-06 00:30 | 28.42909 | -81.29845 | 108 ft | 5 kts | 92° |
| 2026-05-06 00:30 | 28.42881 | -81.29801 | 108 ft | 11 kts | 178° |
| 2026-05-06 00:31 | 28.42800 | -81.29798 | 108 ft | 13 kts | 177° |
| 2026-05-06 00:31 | 28.42704 | -81.29794 | 108 ft | 15 kts | 180° |
| 2026-05-06 00:31 | 28.42595 | -81.29795 | 108 ft | 17 kts | 180° |
| 2026-05-06 00:31 | 28.42473 | -81.29795 | 108 ft | 18 kts | 180° |
| 2026-05-06 00:32 | 28.42364 | -81.29846 | 108 ft | 19 kts | 266° |
| 2026-05-06 00:32 | 28.42365 | -81.30003 | 109 ft | 21 kts | 268° |
| 2026-05-06 00:32 | 28.42359 | -81.30173 | 109 ft | 22 kts | 268° |
| 2026-05-06 00:32 | 28.42356 | -81.30353 | 107 ft | 23 kts | 269° |
| 2026-05-06 00:33 | 28.42349 | -81.30545 | 111 ft | 25 kts | 263° |
| 2026-05-06 00:33 | 28.42330 | -81.30745 | 111 ft | 26 kts | 264° |
| 2026-05-06 00:33 | 28.42321 | -81.30929 | 105 ft | 22 kts | 267° |
| 2026-05-06 00:33 | 28.42325 | -81.31083 | 105 ft | 18 kts | 281° |
| 2026-05-06 00:34 | 28.42350 | -81.31226 | 105 ft | 18 kts | 271° |
| 2026-05-06 00:34 | 28.42345 | -81.31375 | 106 ft | 20 kts | 268° |
| 2026-05-06 00:34 | 28.42345 | -81.31537 | 107 ft | 22 kts | 273° |
| 2026-05-06 00:34 | 28.42348 | -81.31717 | 110 ft | 24 kts | 269° |
| 2026-05-06 00:35 | 28.42298 | -81.31835 | 113 ft | 17 kts | 185° |
| 2026-05-06 00:35 | 28.42174 | -81.31848 | 112 ft | 19 kts | 202° |
| 2026-05-06 00:35 | 28.42051 | -81.31879 | 109 ft | 13 kts | 178° |
| 2026-05-06 00:35 | 28.41965 | -81.31877 | 108 ft | 13 kts | 178° |
| 2026-05-06 00:36 | 28.41865 | -81.31874 | 108 ft | 15 kts | 178° |
| 2026-05-06 00:36 | 28.41752 | -81.31871 | 108 ft | 17 kts | 181° |
| 2026-05-06 00:36 | 28.41629 | -81.31875 | 105 ft | 18 kts | 181° |
| 2026-05-06 00:36 | 28.41545 | -81.31941 | 104 ft | 17 kts | 271° |
| 2026-05-06 00:37 | 28.41545 | -81.32000 | 105 ft | 4 kts | 269° |
| 2026-05-06 00:37 | 28.41545 | -81.32015 | 105 ft | 2 kts | 269° |
| 2026-05-06 00:37 | 28.41545 | -81.32040 | 106 ft | 1 kts | 269° |
| 2026-05-06 00:37 | 28.41544 | -81.32062 | 106 ft | 4 kts | 269° |
| 2026-05-06 00:38 | 28.41543 | -81.32094 | 107 ft | 0 kts | 268° |
| 2026-05-06 00:39 | 28.41543 | -81.32129 | 107 ft | 7 kts | 268° |
| 2026-05-06 00:39 | 28.41549 | -81.32189 | 107 ft | 9 kts | 308° |
| 2026-05-06 00:39 | 28.41583 | -81.32200 | 107 ft | 0 kts | 1° |
| 2026-05-06 00:40 | 28.41685 | -81.32198 | 106 ft | 50 kts | 1° |
| 2026-05-06 00:40 | 28.42319 | -81.32200 | 114 ft | 130 kts | 359° |
| 2026-05-06 00:40 | 28.43448 | -81.32212 | 177 ft | 181 kts | 359° |
| 2026-05-06 00:40 | 28.44609 | -81.32324 | 1165 ft | 158 kts | 357° |
| 2026-05-06 00:41 | 28.45728 | -81.32478 | 1791 ft | 166 kts | 360° |
| 2026-05-06 00:41 | 28.46929 | -81.32604 | 2277 ft | 184 kts | 0° |
| 2026-05-06 00:41 | 28.48278 | -81.32736 | 2726 ft | 206 kts | 359° |
| 2026-05-06 00:41 | 28.49766 | -81.32671 | 3269 ft | 222 kts | 9° |
| 2026-05-06 00:42 | 28.51370 | -81.32542 | 3792 ft | 243 kts | 360° |
| 2026-05-06 00:42 | 28.53099 | -81.32680 | 4526 ft | 253 kts | 353° |
| 2026-05-06 00:42 | 28.54839 | -81.32972 | 5451 ft | 252 kts | 341° |
| 2026-05-06 00:42 | 28.56473 | -81.33682 | 6252 ft | 252 kts | 333° |
| 2026-05-06 00:43 | 28.58058 | -81.34542 | 6761 ft | 252 kts | 325° |
| 2026-05-06 00:43 | 28.59308 | -81.35881 | 6965 ft | 246 kts | 299° |
| 2026-05-06 00:43 | 28.59848 | -81.37705 | 7015 ft | 254 kts | 274° |
| 2026-05-06 00:43 | 28.59851 | -81.39777 | 7027 ft | 265 kts | 268° |
| 2026-05-06 00:44 | 28.59778 | -81.41875 | 7021 ft | 266 kts | 268° |
| 2026-05-06 00:44 | 28.59721 | -81.43977 | 7007 ft | 265 kts | 269° |
| 2026-05-06 00:44 | 28.59676 | -81.46075 | 7004 ft | 265 kts | 269° |
| 2026-05-06 00:44 | 28.59622 | -81.48175 | 6999 ft | 266 kts | 265° |
| 2026-05-06 00:45 | 28.59142 | -81.50196 | 7013 ft | 267 kts | 242° |
| 2026-05-06 00:45 | 28.58026 | -81.51898 | 7625 ft | 273 kts | 231° |
| 2026-05-06 00:45 | 28.56756 | -81.53529 | 8437 ft | 278 kts | 232° |
| 2026-05-06 00:45 | 28.55460 | -81.55194 | 9220 ft | 284 kts | 233° |
| 2026-05-06 00:46 | 28.54146 | -81.56899 | 9955 ft | 290 kts | 234° |
| 2026-05-06 00:46 | 28.52795 | -81.58668 | 10408 ft | 305 kts | 234° |
| 2026-05-06 00:46 | 28.51363 | -81.60551 | 10697 ft | 325 kts | 233° |
| 2026-05-06 00:46 | 28.49839 | -81.62554 | 10953 ft | 345 kts | 233° |
| 2026-05-06 00:47 | 28.48228 | -81.64678 | 11201 ft | 364 kts | 233° |
| 2026-05-06 00:47 | 28.46528 | -81.66907 | 11424 ft | 382 kts | 233° |
| 2026-05-06 00:47 | 28.44760 | -81.69235 | 11672 ft | 398 kts | 233° |
| 2026-05-06 00:47 | 28.42930 | -81.71642 | 12139 ft | 404 kts | 232° |
| 2026-05-06 00:48 | 28.41081 | -81.74069 | 12678 ft | 408 kts | 232° |
| 2026-05-06 00:48 | 28.39221 | -81.76514 | 13233 ft | 411 kts | 233° |
| 2026-05-06 00:48 | 28.37343 | -81.78985 | 13787 ft | 415 kts | 233° |
| 2026-05-06 00:48 | 28.35448 | -81.81478 | 14281 ft | 418 kts | 232° |
| 2026-05-06 00:49 | 28.33538 | -81.83983 | 14785 ft | 421 kts | 233° |
| 2026-05-06 00:49 | 28.31618 | -81.86513 | 15310 ft | 424 kts | 234° |
| 2026-05-06 00:49 | 28.29947 | -81.89253 | 15847 ft | 422 kts | 245° |
| 2026-05-06 00:49 | 28.28856 | -81.92320 | 16375 ft | 419 kts | 258° |
| 2026-05-06 00:50 | 28.28208 | -81.95537 | 16911 ft | 420 kts | 262° |
| 2026-05-06 00:50 | 28.27623 | -81.98798 | 17439 ft | 423 kts | 262° |
| 2026-05-06 00:50 | 28.27028 | -82.02077 | 17957 ft | 426 kts | 261° |
| 2026-05-06 00:50 | 28.26415 | -82.05376 | 18452 ft | 429 kts | 261° |
| 2026-05-06 00:51 | 28.25783 | -82.08698 | 18895 ft | 432 kts | 261° |
| 2026-05-06 00:51 | 28.25148 | -82.12031 | 19343 ft | 434 kts | 261° |
| 2026-05-06 00:51 | 28.24515 | -82.15339 | 19787 ft | 436 kts | 261° |
| 2026-05-06 00:51 | 28.23871 | -82.18700 | 20234 ft | 438 kts | 261° |
| 2026-05-06 00:52 | 28.23223 | -82.22079 | 20691 ft | 440 kts | 261° |
| 2026-05-06 00:52 | 28.22571 | -82.25474 | 21131 ft | 442 kts | 261° |
| 2026-05-06 00:52 | 28.21913 | -82.28884 | 21600 ft | 444 kts | 262° |
| 2026-05-06 00:52 | 28.21253 | -82.32315 | 22092 ft | 446 kts | 262° |
| 2026-05-06 00:53 | 28.20588 | -82.35759 | 22572 ft | 449 kts | 262° |
| 2026-05-06 00:53 | 28.19919 | -82.39224 | 23039 ft | 451 kts | 262° |
| 2026-05-06 00:53 | 28.19244 | -82.42705 | 23462 ft | 453 kts | 262° |
| 2026-05-06 00:53 | 28.18566 | -82.46200 | 23820 ft | 455 kts | 262° |
| 2026-05-06 00:54 | 28.17885 | -82.49707 | 24145 ft | 456 kts | 262° |
| 2026-05-06 00:54 | 28.17200 | -82.53215 | 24570 ft | 455 kts | 262° |
| 2026-05-06 00:54 | 28.16520 | -82.56709 | 25006 ft | 453 kts | 262° |
| 2026-05-06 00:54 | 28.15841 | -82.60187 | 25419 ft | 452 kts | 262° |
| 2026-05-06 00:55 | 28.15162 | -82.63658 | 25878 ft | 450 kts | 262° |
| 2026-05-06 00:55 | 28.14488 | -82.67112 | 26337 ft | 448 kts | 263° |
| 2026-05-06 00:55 | 28.13816 | -82.70552 | 26808 ft | 446 kts | 263° |
| 2026-05-06 00:55 | 28.13143 | -82.73977 | 27292 ft | 444 kts | 263° |
| 2026-05-06 00:56 | 28.12475 | -82.77380 | 27793 ft | 442 kts | 263° |
| 2026-05-06 00:56 | 28.11807 | -82.80771 | 28285 ft | 439 kts | 263° |
| 2026-05-06 00:56 | 28.11143 | -82.84135 | 28774 ft | 437 kts | 263° |
| 2026-05-06 00:56 | 28.10481 | -82.87485 | 29257 ft | 435 kts | 263° |
| 2026-05-06 00:57 | 28.09830 | -82.90816 | 29719 ft | 432 kts | 263° |
| 2026-05-06 00:57 | 28.09205 | -82.94145 | 30033 ft | 431 kts | 264° |
| 2026-05-06 00:57 | 28.08586 | -82.97464 | 30089 ft | 430 kts | 264° |
| 2026-05-06 00:58 | 28.07344 | -83.04079 | 30070 ft | 429 kts | 264° |
| 2026-05-06 00:58 | 28.06096 | -83.10688 | 30082 ft | 429 kts | 264° |
| 2026-05-06 00:59 | 28.04846 | -83.17299 | 30079 ft | 429 kts | 263° |
| 2026-05-06 00:59 | 28.03590 | -83.23905 | 30088 ft | 429 kts | 263° |
| 2026-05-06 01:00 | 28.02328 | -83.30507 | 30067 ft | 429 kts | 263° |
| 2026-05-06 01:00 | 28.01071 | -83.37065 | 30072 ft | 429 kts | 263° |
| 2026-05-06 01:01 | 27.99988 | -83.43682 | 30069 ft | 424 kts | 270° |
| 2026-05-06 01:01 | 27.99595 | -83.50329 | 30104 ft | 424 kts | 271° |
| 2026-05-06 01:02 | 27.99222 | -83.56989 | 30092 ft | 425 kts | 270° |
| 2026-05-06 01:02 | 27.98825 | -83.63655 | 30065 ft | 425 kts | 270° |
| 2026-05-06 01:03 | 27.98432 | -83.70325 | 30060 ft | 425 kts | 270° |
| 2026-05-06 01:03 | 27.98040 | -83.77001 | 30051 ft | 425 kts | 270° |
| 2026-05-06 01:04 | 27.97639 | -83.83668 | 30051 ft | 425 kts | 270° |
| 2026-05-06 01:04 | 27.97244 | -83.90339 | 30050 ft | 425 kts | 270° |
| 2026-05-06 01:05 | 27.96840 | -83.97011 | 30052 ft | 426 kts | 270° |
| 2026-05-06 01:05 | 27.96427 | -84.03693 | 30053 ft | 426 kts | 270° |
| 2026-05-06 01:06 | 27.96014 | -84.10372 | 30053 ft | 426 kts | 270° |
| 2026-05-06 01:06 | 27.95600 | -84.17050 | 30052 ft | 426 kts | 270° |
| 2026-05-06 01:07 | 27.95184 | -84.23727 | 30053 ft | 426 kts | 270° |
| 2026-05-06 01:07 | 27.94761 | -84.30410 | 30042 ft | 426 kts | 269° |
| 2026-05-06 01:08 | 27.94340 | -84.37032 | 30057 ft | 425 kts | 269° |
| 2026-05-06 01:08 | 27.93910 | -84.43697 | 30062 ft | 425 kts | 269° |
| 2026-05-06 01:09 | 27.93480 | -84.50360 | 30054 ft | 425 kts | 269° |
| 2026-05-06 01:09 | 27.93046 | -84.57024 | 30056 ft | 425 kts | 269° |
| 2026-05-06 01:10 | 27.92608 | -84.63686 | 30049 ft | 425 kts | 269° |
| 2026-05-06 01:10 | 27.92169 | -84.70345 | 30053 ft | 423 kts | 269° |
| 2026-05-06 01:11 | 27.91733 | -84.76969 | 30065 ft | 422 kts | 269° |
| 2026-05-06 01:11 | 27.91297 | -84.83591 | 30057 ft | 423 kts | 269° |
| 2026-05-06 01:12 | 27.90851 | -84.90214 | 30059 ft | 423 kts | 269° |
| 2026-05-06 01:12 | 27.90404 | -84.96837 | 30058 ft | 422 kts | 269° |
| 2026-05-06 01:13 | 27.89951 | -85.03457 | 30059 ft | 423 kts | 269° |
| 2026-05-06 01:13 | 27.89491 | -85.10110 | 30055 ft | 425 kts | 269° |
| 2026-05-06 01:14 | 27.88878 | -85.18984 | 30053 ft | 425 kts | 269° |
| 2026-05-06 01:14 | 27.88719 | -85.25638 | 30046 ft | 422 kts | 278° |
| 2026-05-06 01:15 | 27.90208 | -85.32005 | 30053 ft | 419 kts | 289° |
| 2026-05-06 01:15 | 27.92130 | -85.38236 | 30047 ft | 421 kts | 290° |
| 2026-05-06 01:16 | 27.94046 | -85.44462 | 30035 ft | 419 kts | 289° |
| 2026-05-06 01:16 | 27.95932 | -85.50715 | 30032 ft | 420 kts | 289° |
| 2026-05-06 01:17 | 27.97821 | -85.56972 | 30035 ft | 420 kts | 289° |
| 2026-05-06 01:17 | 27.99699 | -85.63235 | 30049 ft | 420 kts | 289° |
| 2026-05-06 01:18 | 28.01577 | -85.69482 | 30040 ft | 418 kts | 289° |
| 2026-05-06 01:18 | 28.03445 | -85.75721 | 30041 ft | 418 kts | 289° |
| 2026-05-06 01:19 | 28.05308 | -85.81954 | 30039 ft | 418 kts | 289° |
| 2026-05-06 01:19 | 28.07170 | -85.88193 | 30035 ft | 418 kts | 289° |
| 2026-05-06 01:20 | 28.09032 | -85.94427 | 30035 ft | 418 kts | 289° |
| 2026-05-06 01:20 | 28.10886 | -86.00689 | 30028 ft | 421 kts | 289° |
| 2026-05-06 01:21 | 28.12749 | -86.06974 | 30035 ft | 421 kts | 289° |
| 2026-05-06 01:21 | 28.14611 | -86.13257 | 30038 ft | 421 kts | 289° |
| 2026-05-06 01:22 | 28.16473 | -86.19550 | 30040 ft | 421 kts | 289° |
| 2026-05-06 01:22 | 28.18347 | -86.25844 | 30037 ft | 422 kts | 289° |
| 2026-05-06 01:23 | 28.20197 | -86.32103 | 30028 ft | 422 kts | 289° |
| 2026-05-06 01:23 | 28.22047 | -86.38410 | 30034 ft | 422 kts | 289° |
| 2026-05-06 01:24 | 28.23901 | -86.44717 | 30044 ft | 422 kts | 289° |
| 2026-05-06 01:24 | 28.25750 | -86.51025 | 30038 ft | 421 kts | 289° |
| 2026-05-06 01:25 | 28.27597 | -86.57336 | 30030 ft | 421 kts | 289° |
| 2026-05-06 01:25 | 28.29435 | -86.63650 | 30031 ft | 421 kts | 289° |
| 2026-05-06 01:26 | 28.31279 | -86.69961 | 30035 ft | 421 kts | 288° |
| 2026-05-06 01:26 | 28.33124 | -86.76273 | 30049 ft | 421 kts | 289° |
| 2026-05-06 01:27 | 28.34966 | -86.82559 | 30028 ft | 419 kts | 289° |
| 2026-05-06 01:27 | 28.36803 | -86.88838 | 30032 ft | 419 kts | 289° |
| 2026-05-06 01:28 | 28.38640 | -86.95129 | 30016 ft | 420 kts | 288° |
| 2026-05-06 01:28 | 28.40473 | -87.01432 | 30030 ft | 421 kts | 288° |
| 2026-05-06 01:29 | 28.42307 | -87.07737 | 30033 ft | 420 kts | 288° |
| 2026-05-06 01:29 | 28.44136 | -87.14046 | 30025 ft | 420 kts | 288° |
| 2026-05-06 01:30 | 28.45963 | -87.20354 | 30036 ft | 420 kts | 288° |
| 2026-05-06 01:30 | 28.47783 | -87.26664 | 30022 ft | 420 kts | 288° |
| 2026-05-06 01:31 | 28.49594 | -87.32983 | 30014 ft | 420 kts | 288° |
| 2026-05-06 01:31 | 28.51417 | -87.39310 | 30025 ft | 421 kts | 288° |
| 2026-05-06 01:32 | 28.53234 | -87.45646 | 30037 ft | 422 kts | 288° |
| 2026-05-06 01:32 | 28.55044 | -87.51950 | 30039 ft | 422 kts | 288° |
| 2026-05-06 01:33 | 28.56859 | -87.58301 | 30029 ft | 422 kts | 288° |
| 2026-05-06 01:33 | 28.58672 | -87.64650 | 30026 ft | 422 kts | 288° |
| 2026-05-06 01:34 | 28.60485 | -87.71004 | 30008 ft | 422 kts | 288° |
| 2026-05-06 01:34 | 28.62294 | -87.77363 | 30024 ft | 422 kts | 288° |
| 2026-05-06 01:35 | 28.64096 | -87.83727 | 30020 ft | 423 kts | 288° |
| 2026-05-06 01:35 | 28.65894 | -87.90082 | 30022 ft | 419 kts | 288° |
| 2026-05-06 01:36 | 28.67683 | -87.96402 | 30017 ft | 420 kts | 288° |
| 2026-05-06 01:36 | 28.69467 | -88.02733 | 30021 ft | 420 kts | 288° |
| 2026-05-06 01:37 | 28.71256 | -88.09058 | 30021 ft | 419 kts | 288° |
| 2026-05-06 01:37 | 28.73035 | -88.15381 | 30014 ft | 419 kts | 288° |
| 2026-05-06 01:38 | 28.74803 | -88.21704 | 30019 ft | 419 kts | 288° |
| 2026-05-06 01:38 | 28.76573 | -88.28028 | 30019 ft | 419 kts | 288° |
| 2026-05-06 01:39 | 28.78340 | -88.34353 | 30011 ft | 419 kts | 288° |
| 2026-05-06 01:39 | 28.80102 | -88.40683 | 30003 ft | 419 kts | 288° |
| 2026-05-06 01:40 | 28.81862 | -88.47013 | 30001 ft | 419 kts | 288° |
| 2026-05-06 01:40 | 28.83607 | -88.53303 | 30012 ft | 419 kts | 287° |
| 2026-05-06 01:41 | 28.85359 | -88.59631 | 30011 ft | 419 kts | 287° |
| 2026-05-06 01:41 | 28.87111 | -88.65968 | 30008 ft | 419 kts | 287° |
| 2026-05-06 01:42 | 28.88655 | -88.71949 | 30004 ft | 419 kts | 284° |
| 2026-05-06 01:42 | 28.90035 | -88.78403 | 30002 ft | 419 kts | 284° |
| 2026-05-06 01:43 | 28.91415 | -88.84857 | 29998 ft | 419 kts | 284° |
| 2026-05-06 01:43 | 28.92781 | -88.91301 | 30007 ft | 417 kts | 284° |
| 2026-05-06 01:44 | 28.94150 | -88.97743 | 30001 ft | 417 kts | 284° |
| 2026-05-06 01:44 | 28.95509 | -89.04187 | 30029 ft | 417 kts | 284° |
| 2026-05-06 01:45 | 28.96866 | -89.10595 | 30006 ft | 414 kts | 284° |
| 2026-05-06 01:45 | 28.98206 | -89.16949 | 30005 ft | 414 kts | 284° |
| 2026-05-06 01:46 | 28.99550 | -89.23354 | 29987 ft | 415 kts | 284° |
| 2026-05-06 01:46 | 29.00895 | -89.29747 | 29983 ft | 414 kts | 283° |
| 2026-05-06 01:47 | 29.02229 | -89.36138 | 29990 ft | 413 kts | 284° |
| 2026-05-06 01:47 | 29.03566 | -89.42527 | 29992 ft | 413 kts | 283° |
| 2026-05-06 01:48 | 29.04897 | -89.48913 | 29987 ft | 413 kts | 283° |
| 2026-05-06 01:48 | 29.06221 | -89.55299 | 29984 ft | 413 kts | 283° |
| 2026-05-06 01:49 | 29.07544 | -89.61688 | 29980 ft | 413 kts | 283° |
| 2026-05-06 01:49 | 29.08858 | -89.68083 | 29987 ft | 413 kts | 283° |
| 2026-05-06 01:50 | 29.10171 | -89.74476 | 29991 ft | 413 kts | 283° |
| 2026-05-06 01:50 | 29.11488 | -89.80876 | 29981 ft | 413 kts | 283° |
| 2026-05-06 01:51 | 29.12802 | -89.87270 | 29989 ft | 413 kts | 283° |
| 2026-05-06 01:51 | 29.14111 | -89.93669 | 29981 ft | 413 kts | 283° |
| 2026-05-06 01:52 | 29.15417 | -90.00067 | 29961 ft | 413 kts | 283° |
| 2026-05-06 01:52 | 29.16717 | -90.06455 | 29974 ft | 412 kts | 283° |
| 2026-05-06 01:53 | 29.17937 | -90.12862 | 29973 ft | 412 kts | 281° |
| 2026-05-06 01:53 | 29.19029 | -90.19297 | 29990 ft | 412 kts | 281° |
| 2026-05-06 01:54 | 29.20118 | -90.25740 | 29987 ft | 412 kts | 281° |
| 2026-05-06 01:54 | 29.21203 | -90.32179 | 29979 ft | 412 kts | 281° |
| 2026-05-06 01:55 | 29.22284 | -90.38617 | 29989 ft | 412 kts | 281° |
| 2026-05-06 01:55 | 29.23353 | -90.45006 | 29978 ft | 411 kts | 281° |
| 2026-05-06 01:56 | 29.24428 | -90.51433 | 29980 ft | 411 kts | 281° |
| 2026-05-06 01:56 | 29.25495 | -90.57848 | 29995 ft | 408 kts | 281° |
| 2026-05-06 01:57 | 29.26535 | -90.64239 | 29979 ft | 408 kts | 281° |
| 2026-05-06 01:57 | 29.27590 | -90.70625 | 29968 ft | 408 kts | 281° |
| 2026-05-06 01:58 | 29.28649 | -90.77015 | 29963 ft | 408 kts | 281° |
| 2026-05-06 01:58 | 29.29699 | -90.83398 | 29954 ft | 407 kts | 281° |
| 2026-05-06 01:59 | 29.30743 | -90.89779 | 29954 ft | 407 kts | 281° |
| 2026-05-06 01:59 | 29.31794 | -90.96157 | 29952 ft | 407 kts | 281° |
| 2026-05-06 02:00 | 29.32831 | -91.02538 | 29956 ft | 407 kts | 280° |
| 2026-05-06 02:00 | 29.33871 | -91.08917 | 29953 ft | 407 kts | 281° |
| 2026-05-06 02:01 | 29.34908 | -91.15298 | 29947 ft | 407 kts | 280° |
| 2026-05-06 02:01 | 29.35938 | -91.21682 | 29949 ft | 407 kts | 280° |
| 2026-05-06 02:02 | 29.36965 | -91.28061 | 29947 ft | 407 kts | 280° |
| 2026-05-06 02:02 | 29.37992 | -91.34442 | 29947 ft | 407 kts | 280° |
| 2026-05-06 02:03 | 29.39006 | -91.40784 | 29941 ft | 407 kts | 280° |
| 2026-05-06 02:03 | 29.40022 | -91.47165 | 29940 ft | 407 kts | 280° |
| 2026-05-06 02:04 | 29.41033 | -91.53552 | 29946 ft | 407 kts | 279° |
| 2026-05-06 02:04 | 29.42044 | -91.59913 | 29939 ft | 405 kts | 279° |
| 2026-05-06 02:05 | 29.43049 | -91.66274 | 29939 ft | 405 kts | 279° |
| 2026-05-06 02:05 | 29.44051 | -91.72632 | 29930 ft | 405 kts | 279° |
| 2026-05-06 02:06 | 29.45049 | -91.78991 | 29933 ft | 405 kts | 279° |
| 2026-05-06 02:06 | 29.46038 | -91.85356 | 29922 ft | 405 kts | 279° |
| 2026-05-06 02:07 | 29.47033 | -91.91717 | 29924 ft | 405 kts | 279° |
| 2026-05-06 02:07 | 29.48017 | -91.98068 | 29921 ft | 404 kts | 279° |
| 2026-05-06 02:08 | 29.48987 | -92.04417 | 29915 ft | 404 kts | 279° |
| 2026-05-06 02:08 | 29.49967 | -92.10764 | 29914 ft | 404 kts | 279° |
| 2026-05-06 02:09 | 29.50925 | -92.17115 | 29908 ft | 404 kts | 279° |
| 2026-05-06 02:09 | 29.51883 | -92.23426 | 29908 ft | 404 kts | 279° |
| 2026-05-06 02:10 | 29.52848 | -92.29751 | 29922 ft | 400 kts | 279° |
| 2026-05-06 02:10 | 29.53808 | -92.36036 | 29911 ft | 399 kts | 278° |
| 2026-05-06 02:11 | 29.54763 | -92.42314 | 29908 ft | 399 kts | 278° |
| 2026-05-06 02:11 | 29.55712 | -92.48595 | 29908 ft | 399 kts | 278° |
| 2026-05-06 02:12 | 29.56666 | -92.54876 | 29906 ft | 399 kts | 279° |
| 2026-05-06 02:12 | 29.57637 | -92.61151 | 29908 ft | 399 kts | 278° |
| 2026-05-06 02:13 | 29.58585 | -92.67428 | 29908 ft | 399 kts | 278° |
| 2026-05-06 02:13 | 29.59522 | -92.73708 | 29908 ft | 399 kts | 278° |
| 2026-05-06 02:14 | 29.60458 | -92.79992 | 29909 ft | 399 kts | 278° |
| 2026-05-06 02:14 | 29.61388 | -92.86273 | 29909 ft | 399 kts | 278° |
| 2026-05-06 02:15 | 29.62320 | -92.92559 | 29908 ft | 399 kts | 278° |
| 2026-05-06 02:15 | 29.63234 | -92.98848 | 29908 ft | 399 kts | 278° |
| 2026-05-06 02:16 | 29.64160 | -93.05132 | 29909 ft | 399 kts | 278° |
| 2026-05-06 02:16 | 29.65077 | -93.11412 | 29906 ft | 398 kts | 278° |
| 2026-05-06 02:17 | 29.65997 | -93.17687 | 29905 ft | 398 kts | 278° |
| 2026-05-06 02:17 | 29.66901 | -93.23920 | 29903 ft | 398 kts | 278° |
| 2026-05-06 02:18 | 29.67813 | -93.30200 | 29902 ft | 398 kts | 278° |
| 2026-05-06 02:18 | 29.68710 | -93.36484 | 29900 ft | 398 kts | 277° |
| 2026-05-06 02:19 | 29.69618 | -93.42765 | 29899 ft | 398 kts | 277° |
| 2026-05-06 02:19 | 29.70374 | -93.48029 | 29899 ft | 398 kts | 278° |
| 2026-05-06 02:20 | 29.71863 | -93.58471 | 29891 ft | 398 kts | 277° |
| 2026-05-06 02:21 | 29.72749 | -93.64755 | 29891 ft | 398 kts | 277° |
| 2026-05-06 02:21 | 29.73488 | -93.69980 | 29890 ft | 398 kts | 278° |
| 2026-05-06 02:22 | 29.74379 | -93.76270 | 29887 ft | 398 kts | 277° |
| 2026-05-06 02:22 | 29.75264 | -93.82560 | 29881 ft | 398 kts | 277° |
| 2026-05-06 02:23 | 29.76147 | -93.88856 | 29875 ft | 398 kts | 277° |
| 2026-05-06 02:23 | 29.77025 | -93.95153 | 29894 ft | 398 kts | 277° |
| 2026-05-06 02:24 | 29.77896 | -94.01402 | 29873 ft | 395 kts | 277° |
| 2026-05-06 02:24 | 29.78754 | -94.07643 | 29873 ft | 395 kts | 277° |
| 2026-05-06 02:25 | 29.79619 | -94.13880 | 29874 ft | 395 kts | 277° |
| 2026-05-06 02:25 | 29.80477 | -94.20120 | 29872 ft | 395 kts | 277° |
| 2026-05-06 02:26 | 29.81336 | -94.26364 | 29873 ft | 395 kts | 277° |
| 2026-05-06 02:26 | 29.82195 | -94.32615 | 29869 ft | 395 kts | 276° |
| 2026-05-06 02:27 | 29.83042 | -94.38872 | 29868 ft | 396 kts | 276° |
| 2026-05-06 02:27 | 29.83885 | -94.45130 | 29865 ft | 395 kts | 276° |
| 2026-05-06 02:28 | 29.84735 | -94.51391 | 29862 ft | 395 kts | 276° |
| 2026-05-06 02:28 | 29.85575 | -94.57649 | 29872 ft | 395 kts | 276° |
| 2026-05-06 02:29 | 29.86415 | -94.63912 | 29855 ft | 396 kts | 276° |
| 2026-05-06 02:29 | 29.87258 | -94.70181 | 29855 ft | 396 kts | 276° |
| 2026-05-06 02:30 | 29.88094 | -94.76450 | 29849 ft | 396 kts | 276° |
| 2026-05-06 02:30 | 29.88926 | -94.82721 | 29852 ft | 396 kts | 276° |
| 2026-05-06 02:31 | 29.89745 | -94.88993 | 29847 ft | 396 kts | 276° |
| 2026-05-06 02:31 | 29.90571 | -94.95222 | 29843 ft | 396 kts | 276° |
| 2026-05-06 02:32 | 29.91392 | -95.01493 | 29853 ft | 395 kts | 275° |
| 2026-05-06 02:32 | 29.92214 | -95.07757 | 29875 ft | 395 kts | 275° |
| 2026-05-06 02:33 | 29.93026 | -95.14024 | 29866 ft | 395 kts | 275° |
| 2026-05-06 02:33 | 29.93298 | -95.16143 | 29861 ft | 396 kts | 275° |
| 2026-05-06 02:34 | 29.94654 | -95.26567 | 29870 ft | 395 kts | 275° |
| 2026-05-06 02:34 | 29.95462 | -95.32841 | 29863 ft | 396 kts | 275° |
| 2026-05-06 02:35 | 29.96394 | -95.39102 | 29856 ft | 397 kts | 276° |
| 2026-05-06 02:35 | 29.97410 | -95.45363 | 29846 ft | 397 kts | 277° |
| 2026-05-06 02:36 | 29.98412 | -95.51629 | 29844 ft | 397 kts | 276° |
| 2026-05-06 02:36 | 29.99423 | -95.57894 | 29844 ft | 397 kts | 277° |
| 2026-05-06 02:37 | 30.00410 | -95.64120 | 29768 ft | 392 kts | 276° |
| 2026-05-06 02:37 | 30.01394 | -95.70311 | 29770 ft | 392 kts | 277° |
| 2026-05-06 02:38 | 30.02379 | -95.76510 | 29798 ft | 393 kts | 276° |
| 2026-05-06 02:38 | 30.03357 | -95.82714 | 29790 ft | 393 kts | 276° |
| 2026-05-06 02:39 | 30.04329 | -95.88915 | 29784 ft | 393 kts | 276° |
| 2026-05-06 02:39 | 30.05301 | -95.95113 | 29775 ft | 392 kts | 276° |
| 2026-05-06 02:40 | 30.06273 | -96.01313 | 29741 ft | 393 kts | 276° |
| 2026-05-06 02:40 | 30.07240 | -96.07520 | 29704 ft | 393 kts | 276° |
| 2026-05-06 02:41 | 30.08206 | -96.13726 | 29654 ft | 393 kts | 276° |
| 2026-05-06 02:41 | 30.09166 | -96.19932 | 29634 ft | 393 kts | 276° |
| 2026-05-06 02:42 | 30.10122 | -96.26139 | 29634 ft | 392 kts | 276° |
| 2026-05-06 02:42 | 30.11078 | -96.32341 | 29631 ft | 392 kts | 276° |
| 2026-05-06 02:43 | 30.12020 | -96.38503 | 29622 ft | 392 kts | 276° |
| 2026-05-06 02:43 | 30.12964 | -96.44714 | 29631 ft | 393 kts | 276° |
| 2026-05-06 02:44 | 30.13913 | -96.50931 | 29623 ft | 393 kts | 275° |
| 2026-05-06 02:44 | 30.14859 | -96.57151 | 29645 ft | 393 kts | 275° |
| 2026-05-06 02:45 | 30.15798 | -96.63375 | 29701 ft | 393 kts | 275° |
| 2026-05-06 02:45 | 30.16736 | -96.69600 | 29745 ft | 393 kts | 275° |
| 2026-05-06 02:46 | 30.17668 | -96.75827 | 29766 ft | 393 kts | 275° |
| 2026-05-06 02:46 | 30.18599 | -96.82055 | 29806 ft | 393 kts | 275° |
| 2026-05-06 02:47 | 30.19538 | -96.88287 | 29861 ft | 394 kts | 275° |
| 2026-05-06 02:47 | 30.20462 | -96.94540 | 29865 ft | 395 kts | 275° |
| 2026-05-06 02:48 | 30.21389 | -97.00794 | 29896 ft | 394 kts | 275° |
| 2026-05-06 02:48 | 30.22316 | -97.07034 | 29865 ft | 394 kts | 275° |
| 2026-05-06 02:49 | 30.23234 | -97.13270 | 29831 ft | 394 kts | 275° |
| 2026-05-06 02:49 | 30.24148 | -97.19510 | 29751 ft | 394 kts | 275° |
| 2026-05-06 02:50 | 30.25063 | -97.25749 | 29747 ft | 394 kts | 275° |
| 2026-05-06 02:50 | 30.25973 | -97.31989 | 29760 ft | 393 kts | 275° |
| 2026-05-06 02:51 | 30.26876 | -97.38230 | 29767 ft | 393 kts | 275° |
| 2026-05-06 02:51 | 30.27773 | -97.44473 | 29764 ft | 394 kts | 275° |
| 2026-05-06 02:52 | 30.28673 | -97.50720 | 29766 ft | 394 kts | 275° |
| 2026-05-06 02:52 | 30.29569 | -97.56924 | 29778 ft | 394 kts | 275° |
| 2026-05-06 02:53 | 30.30460 | -97.63185 | 29785 ft | 395 kts | 274° |
| 2026-05-06 02:53 | 30.31357 | -97.69464 | 29782 ft | 395 kts | 275° |
| 2026-05-06 02:54 | 30.32264 | -97.75778 | 29783 ft | 395 kts | 274° |
| 2026-05-06 02:54 | 30.33140 | -97.82006 | 29806 ft | 395 kts | 274° |
| 2026-05-06 02:55 | 30.34027 | -97.88280 | 29784 ft | 395 kts | 274° |
| 2026-05-06 02:55 | 30.34907 | -97.94551 | 29777 ft | 395 kts | 274° |
| 2026-05-06 02:56 | 30.35788 | -98.00831 | 29773 ft | 396 kts | 274° |
| 2026-05-06 02:56 | 30.36674 | -98.07140 | 29772 ft | 397 kts | 274° |
| 2026-05-06 02:57 | 30.37554 | -98.13449 | 29772 ft | 397 kts | 274° |
| 2026-05-06 02:57 | 30.38425 | -98.19765 | 29797 ft | 397 kts | 274° |
| 2026-05-06 02:58 | 30.39296 | -98.26077 | 29810 ft | 397 kts | 274° |
| 2026-05-06 02:58 | 30.40156 | -98.32395 | 29818 ft | 397 kts | 274° |
| 2026-05-06 02:59 | 30.41032 | -98.38712 | 29829 ft | 398 kts | 274° |
| 2026-05-06 02:59 | 30.41900 | -98.45039 | 29766 ft | 398 kts | 274° |
| 2026-05-06 03:00 | 30.42761 | -98.51373 | 29753 ft | 398 kts | 273° |
| 2026-05-06 03:00 | 30.43601 | -98.57711 | 29756 ft | 398 kts | 273° |
| 2026-05-06 03:01 | 30.44449 | -98.64045 | 29758 ft | 398 kts | 274° |
| 2026-05-06 03:01 | 30.45299 | -98.70380 | 29750 ft | 397 kts | 274° |
| 2026-05-06 03:02 | 30.46136 | -98.76663 | 29761 ft | 397 kts | 273° |
| 2026-05-06 03:02 | 30.46973 | -98.82989 | 29746 ft | 397 kts | 273° |
| 2026-05-06 03:03 | 30.47809 | -98.89313 | 29738 ft | 397 kts | 273° |
| 2026-05-06 03:03 | 30.48650 | -98.95641 | 29732 ft | 397 kts | 273° |
| 2026-05-06 03:04 | 30.49483 | -99.01974 | 29731 ft | 398 kts | 273° |
| 2026-05-06 03:04 | 30.50318 | -99.08314 | 29731 ft | 397 kts | 273° |
| 2026-05-06 03:05 | 30.51147 | -99.14645 | 29731 ft | 397 kts | 273° |
| 2026-05-06 03:05 | 30.51974 | -99.20974 | 29728 ft | 397 kts | 273° |
| 2026-05-06 03:06 | 30.52808 | -99.27299 | 29728 ft | 397 kts | 273° |
| 2026-05-06 03:06 | 30.53625 | -99.33635 | 29730 ft | 397 kts | 273° |
| 2026-05-06 03:07 | 30.54445 | -99.39967 | 29744 ft | 397 kts | 273° |
| 2026-05-06 03:07 | 30.55125 | -99.45232 | 29766 ft | 397 kts | 273° |
| 2026-05-06 03:08 | 30.55936 | -99.51577 | 29792 ft | 398 kts | 273° |
| 2026-05-06 03:08 | 30.56749 | -99.57879 | 29815 ft | 398 kts | 273° |
| 2026-05-06 03:09 | 30.57561 | -99.64232 | 29838 ft | 398 kts | 273° |
| 2026-05-06 03:09 | 30.58381 | -99.70583 | 29854 ft | 398 kts | 273° |
| 2026-05-06 03:10 | 30.59190 | -99.76944 | 29876 ft | 398 kts | 273° |
| 2026-05-06 03:10 | 30.59992 | -99.83296 | 29852 ft | 397 kts | 272° |
| 2026-05-06 03:11 | 30.60640 | -99.88575 | 29826 ft | 399 kts | 272° |
| 2026-05-06 03:11 | 30.61433 | -99.94950 | 29799 ft | 399 kts | 272° |
| 2026-05-06 03:12 | 30.62221 | -100.01330 | 29779 ft | 399 kts | 272° |
| 2026-05-06 03:12 | 30.63005 | -100.07706 | 29753 ft | 399 kts | 272° |
| 2026-05-06 03:13 | 30.63786 | -100.14086 | 29729 ft | 399 kts | 272° |
| 2026-05-06 03:13 | 30.64564 | -100.20465 | 29701 ft | 399 kts | 272° |
| 2026-05-06 03:14 | 30.65341 | -100.26882 | 29720 ft | 402 kts | 272° |
| 2026-05-06 03:14 | 30.66118 | -100.33314 | 29780 ft | 402 kts | 272° |
| 2026-05-06 03:15 | 30.66660 | -100.37831 | 29815 ft | 402 kts | 272° |
| 2026-05-06 03:15 | 30.67434 | -100.44258 | 29853 ft | 402 kts | 272° |
| 2026-05-06 03:16 | 30.68201 | -100.50691 | 29875 ft | 402 kts | 272° |
| 2026-05-06 03:16 | 30.68961 | -100.57128 | 29900 ft | 402 kts | 272° |
| 2026-05-06 03:17 | 30.69531 | -100.61933 | 29900 ft | 402 kts | 271° |
| 2026-05-06 03:17 | 30.70286 | -100.68377 | 29896 ft | 403 kts | 271° |
| 2026-05-06 03:18 | 30.71043 | -100.74825 | 29877 ft | 403 kts | 271° |
| 2026-05-06 03:18 | 30.71791 | -100.81275 | 29854 ft | 403 kts | 271° |
| 2026-05-06 03:19 | 30.72539 | -100.87681 | 29827 ft | 403 kts | 271° |
| 2026-05-06 03:19 | 30.73293 | -100.94128 | 29832 ft | 402 kts | 271° |
| 2026-05-06 03:20 | 30.74414 | -101.03800 | 29876 ft | 402 kts | 271° |
| 2026-05-06 03:20 | 30.75134 | -101.10248 | 29903 ft | 402 kts | 271° |
| 2026-05-06 03:21 | 30.75852 | -101.16697 | 29901 ft | 402 kts | 271° |
| 2026-05-06 03:21 | 30.76592 | -101.23132 | 29921 ft | 400 kts | 271° |
| 2026-05-06 03:22 | 30.76961 | -101.26340 | 29773 ft | 400 kts | 271° |
| 2026-05-06 03:22 | 30.77321 | -101.29548 | 29767 ft | 400 kts | 271° |
| 2026-05-06 03:22 | 30.78046 | -101.35965 | 29759 ft | 399 kts | 270° |
| 2026-05-06 03:23 | 30.78767 | -101.42370 | 29759 ft | 400 kts | 270° |
| 2026-05-06 03:23 | 30.79499 | -101.48779 | 29762 ft | 400 kts | 270° |
| 2026-05-06 03:24 | 30.80217 | -101.55187 | 29762 ft | 400 kts | 270° |
| 2026-05-06 03:24 | 30.80915 | -101.61596 | 29759 ft | 399 kts | 270° |
| 2026-05-06 03:25 | 30.81622 | -101.68007 | 29783 ft | 399 kts | 270° |
| 2026-05-06 03:25 | 30.82312 | -101.74388 | 29763 ft | 397 kts | 270° |
| 2026-05-06 03:26 | 30.82843 | -101.79214 | 29767 ft | 397 kts | 270° |
| 2026-05-06 03:26 | 30.83532 | -101.85583 | 29766 ft | 397 kts | 270° |
| 2026-05-06 03:27 | 30.84222 | -101.91950 | 29763 ft | 397 kts | 270° |
| 2026-05-06 03:27 | 30.84901 | -101.98279 | 29754 ft | 397 kts | 270° |
| 2026-05-06 03:28 | 30.85581 | -102.04651 | 29806 ft | 397 kts | 270° |
| 2026-05-06 03:28 | 30.86261 | -102.10955 | 29767 ft | 390 kts | 270° |
| 2026-05-06 03:29 | 30.86928 | -102.17215 | 29760 ft | 390 kts | 270° |
| 2026-05-06 03:29 | 30.87587 | -102.23482 | 29758 ft | 391 kts | 270° |
| 2026-05-06 03:30 | 30.88250 | -102.29763 | 29760 ft | 391 kts | 270° |
| 2026-05-06 03:30 | 30.88901 | -102.36037 | 29755 ft | 390 kts | 270° |
| 2026-05-06 03:31 | 30.89557 | -102.42311 | 29801 ft | 389 kts | 270° |
| 2026-05-06 03:31 | 30.90205 | -102.48534 | 29764 ft | 387 kts | 270° |
| 2026-05-06 03:32 | 30.90847 | -102.54754 | 29803 ft | 387 kts | 270° |
| 2026-05-06 03:32 | 30.91481 | -102.60938 | 29795 ft | 384 kts | 270° |
| 2026-05-06 03:33 | 30.92106 | -102.67069 | 29815 ft | 384 kts | 270° |
| 2026-05-06 03:33 | 30.92736 | -102.73244 | 29842 ft | 384 kts | 270° |
| 2026-05-06 03:34 | 30.93360 | -102.79421 | 29884 ft | 384 kts | 269° |
| 2026-05-06 03:34 | 30.93977 | -102.85581 | 29747 ft | 383 kts | 269° |
| 2026-05-06 03:35 | 30.94602 | -102.91742 | 29744 ft | 383 kts | 269° |
| 2026-05-06 03:35 | 30.95342 | -102.97899 | 29744 ft | 388 kts | 275° |
| 2026-05-06 03:36 | 30.96932 | -103.03978 | 29737 ft | 393 kts | 279° |
| 2026-05-06 03:36 | 30.98629 | -103.10039 | 29739 ft | 393 kts | 278° |
| 2026-05-06 03:37 | 31.00300 | -103.16110 | 29743 ft | 394 kts | 278° |
| 2026-05-06 03:37 | 31.01979 | -103.22203 | 29746 ft | 395 kts | 278° |
| 2026-05-06 03:38 | 31.03648 | -103.28306 | 29742 ft | 395 kts | 278° |
| 2026-05-06 03:38 | 31.05319 | -103.34408 | 29736 ft | 395 kts | 278° |
| 2026-05-06 03:39 | 31.06988 | -103.40513 | 29753 ft | 395 kts | 278° |
| 2026-05-06 03:39 | 31.08650 | -103.46622 | 29768 ft | 395 kts | 278° |
| 2026-05-06 03:40 | 31.10306 | -103.52700 | 29791 ft | 392 kts | 278° |
| 2026-05-06 03:40 | 31.11949 | -103.58779 | 29791 ft | 393 kts | 278° |
| 2026-05-06 03:41 | 31.13582 | -103.64863 | 29786 ft | 393 kts | 278° |
| 2026-05-06 03:41 | 31.15224 | -103.70948 | 29779 ft | 393 kts | 278° |
| 2026-05-06 03:42 | 31.16866 | -103.77032 | 29768 ft | 393 kts | 278° |
| 2026-05-06 03:42 | 31.18473 | -103.83000 | 29768 ft | 393 kts | 278° |
| 2026-05-06 03:43 | 31.20117 | -103.89086 | 29764 ft | 392 kts | 278° |
| 2026-05-06 03:43 | 31.21749 | -103.95165 | 29760 ft | 392 kts | 278° |
| 2026-05-06 03:44 | 31.23373 | -104.01248 | 29762 ft | 392 kts | 278° |
| 2026-05-06 03:44 | 31.24990 | -104.07330 | 29773 ft | 392 kts | 278° |
| 2026-05-06 03:45 | 31.26610 | -104.13412 | 29770 ft | 392 kts | 277° |
| 2026-05-06 03:45 | 31.28231 | -104.19502 | 29785 ft | 392 kts | 278° |
| 2026-05-06 03:46 | 31.29840 | -104.25592 | 29791 ft | 392 kts | 277° |
| 2026-05-06 03:46 | 31.31449 | -104.31682 | 29775 ft | 392 kts | 277° |
| 2026-05-06 03:47 | 31.33062 | -104.37768 | 29773 ft | 392 kts | 277° |
| 2026-05-06 03:47 | 31.34664 | -104.43858 | 29770 ft | 392 kts | 277° |
| 2026-05-06 03:48 | 31.36265 | -104.49947 | 29767 ft | 392 kts | 277° |
| 2026-05-06 03:48 | 31.37862 | -104.56042 | 29769 ft | 392 kts | 277° |
| 2026-05-06 03:49 | 31.39456 | -104.62141 | 29770 ft | 392 kts | 277° |
| 2026-05-06 03:49 | 31.41049 | -104.68240 | 29778 ft | 392 kts | 277° |
| 2026-05-06 03:50 | 31.42634 | -104.74339 | 29776 ft | 392 kts | 277° |
| 2026-05-06 03:50 | 31.44218 | -104.80439 | 29774 ft | 392 kts | 277° |
| 2026-05-06 03:51 | 31.45776 | -104.86452 | 29773 ft | 391 kts | 277° |
| 2026-05-06 03:51 | 31.47358 | -104.92551 | 29792 ft | 391 kts | 277° |
| 2026-05-06 03:52 | 31.48877 | -104.98423 | 29778 ft | 396 kts | 277° |
| 2026-05-06 03:52 | 31.50471 | -105.04607 | 29776 ft | 397 kts | 277° |
| 2026-05-06 03:53 | 31.52062 | -105.10800 | 29769 ft | 397 kts | 277° |
| 2026-05-06 03:53 | 31.53656 | -105.16992 | 29769 ft | 397 kts | 277° |
| 2026-05-06 03:54 | 31.54970 | -105.22139 | 29775 ft | 397 kts | 277° |
| 2026-05-06 03:54 | 31.56546 | -105.28337 | 29775 ft | 397 kts | 277° |
| 2026-05-06 03:55 | 31.58403 | -105.35605 | 29771 ft | 399 kts | 276° |
| 2026-05-06 03:55 | 31.59726 | -105.40784 | 29771 ft | 399 kts | 276° |
| 2026-05-06 03:56 | 31.61304 | -105.47018 | 29769 ft | 399 kts | 276° |
| 2026-05-06 03:56 | 31.62740 | -105.52680 | 29776 ft | 399 kts | 276° |
| 2026-05-06 03:57 | 31.64305 | -105.58922 | 29779 ft | 399 kts | 276° |
| 2026-05-06 03:57 | 31.65878 | -105.65175 | 29815 ft | 400 kts | 276° |
| 2026-05-06 03:58 | 31.67455 | -105.71435 | 29783 ft | 400 kts | 276° |
| 2026-05-06 03:58 | 31.68963 | -105.77414 | 29778 ft | 400 kts | 276° |
| 2026-05-06 03:59 | 31.70530 | -105.83676 | 29778 ft | 400 kts | 276° |
| 2026-05-06 03:59 | 31.72094 | -105.89936 | 29776 ft | 399 kts | 276° |
| 2026-05-06 04:00 | 31.73656 | -105.96200 | 29771 ft | 400 kts | 276° |
| 2026-05-06 04:00 | 31.75218 | -106.02465 | 29825 ft | 399 kts | 276° |
| 2026-05-06 04:01 | 31.76765 | -106.08707 | 29842 ft | 398 kts | 276° |
| 2026-05-06 04:01 | 31.78308 | -106.14951 | 29875 ft | 398 kts | 276° |
| 2026-05-06 04:02 | 31.79856 | -106.21199 | 29918 ft | 398 kts | 276° |
| 2026-05-06 04:02 | 31.81364 | -106.27447 | 29946 ft | 394 kts | 273° |
| 2026-05-06 04:03 | 31.82027 | -106.33729 | 29949 ft | 385 kts | 266° |
| 2026-05-06 04:03 | 31.82481 | -106.40004 | 29961 ft | 385 kts | 267° |
| 2026-05-06 04:04 | 31.82943 | -106.46282 | 29941 ft | 385 kts | 267° |
| 2026-05-06 04:04 | 31.83401 | -106.52512 | 29928 ft | 386 kts | 268° |
| 2026-05-06 04:05 | 31.83868 | -106.58795 | 29985 ft | 385 kts | 267° |
| 2026-05-06 04:05 | 31.84338 | -106.65075 | 30000 ft | 385 kts | 268° |
| 2026-05-06 04:06 | 31.84800 | -106.71355 | 30006 ft | 386 kts | 267° |
| 2026-05-06 04:06 | 31.85246 | -106.77659 | 30001 ft | 387 kts | 267° |
| 2026-05-06 04:07 | 31.85696 | -106.83966 | 29976 ft | 387 kts | 267° |
| 2026-05-06 04:07 | 31.86151 | -106.90283 | 29778 ft | 388 kts | 267° |
| 2026-05-06 04:08 | 31.86610 | -106.96603 | 29774 ft | 388 kts | 267° |
| 2026-05-06 04:08 | 31.87062 | -107.02923 | 29774 ft | 388 kts | 267° |
| 2026-05-06 04:09 | 31.87508 | -107.09262 | 29786 ft | 390 kts | 267° |
| 2026-05-06 04:09 | 31.87952 | -107.15620 | 29776 ft | 390 kts | 267° |
| 2026-05-06 04:10 | 31.88392 | -107.21981 | 29781 ft | 390 kts | 267° |
| 2026-05-06 04:10 | 31.88825 | -107.28338 | 29779 ft | 390 kts | 267° |
| 2026-05-06 04:11 | 31.89256 | -107.34697 | 29786 ft | 390 kts | 267° |
| 2026-05-06 04:11 | 31.89687 | -107.41055 | 29789 ft | 390 kts | 267° |
| 2026-05-06 04:12 | 31.90110 | -107.47420 | 29796 ft | 390 kts | 266° |
| 2026-05-06 04:12 | 31.90533 | -107.53787 | 29796 ft | 390 kts | 267° |
| 2026-05-06 04:13 | 31.90954 | -107.60151 | 29796 ft | 390 kts | 266° |
| 2026-05-06 04:13 | 31.91367 | -107.66489 | 29816 ft | 386 kts | 266° |
| 2026-05-06 04:14 | 31.91777 | -107.72789 | 29807 ft | 385 kts | 267° |
| 2026-05-06 04:14 | 31.92373 | -107.79083 | 29803 ft | 394 kts | 274° |
| 2026-05-06 04:15 | 31.93866 | -107.85343 | 29802 ft | 398 kts | 276° |
| 2026-05-06 04:15 | 31.95402 | -107.91596 | 29803 ft | 397 kts | 276° |
| 2026-05-06 04:16 | 31.96913 | -107.97853 | 29802 ft | 397 kts | 276° |
| 2026-05-06 04:16 | 31.98408 | -108.04105 | 29806 ft | 396 kts | 276° |
| 2026-05-06 04:17 | 31.99890 | -108.10314 | 29814 ft | 396 kts | 276° |
| 2026-05-06 04:17 | 32.01377 | -108.16567 | 29810 ft | 396 kts | 276° |
| 2026-05-06 04:18 | 32.02655 | -108.21944 | 29804 ft | 397 kts | 276° |
| 2026-05-06 04:18 | 32.04142 | -108.28205 | 29803 ft | 397 kts | 276° |
| 2026-05-06 04:19 | 32.05613 | -108.34471 | 29809 ft | 397 kts | 276° |
| 2026-05-06 04:19 | 32.07091 | -108.40738 | 29803 ft | 397 kts | 276° |
| 2026-05-06 04:20 | 32.08564 | -108.47007 | 29861 ft | 396 kts | 276° |
| 2026-05-06 04:20 | 32.10032 | -108.53263 | 29889 ft | 396 kts | 276° |
| 2026-05-06 04:21 | 32.11494 | -108.59525 | 29923 ft | 396 kts | 276° |
| 2026-05-06 04:21 | 32.12963 | -108.65789 | 29943 ft | 396 kts | 276° |
| 2026-05-06 04:22 | 32.14415 | -108.72059 | 29953 ft | 397 kts | 276° |
| 2026-05-06 04:22 | 32.15148 | -108.75197 | 29838 ft | 396 kts | 276° |
| 2026-05-06 04:23 | 32.16607 | -108.81459 | 29839 ft | 395 kts | 276° |
| 2026-05-06 04:23 | 32.18052 | -108.87708 | 29829 ft | 395 kts | 276° |
| 2026-05-06 04:24 | 32.19496 | -108.93960 | 29835 ft | 394 kts | 276° |
| 2026-05-06 04:24 | 32.20937 | -109.00201 | 29839 ft | 394 kts | 276° |
| 2026-05-06 04:25 | 32.22370 | -109.06448 | 29857 ft | 393 kts | 275° |
| 2026-05-06 04:25 | 32.23793 | -109.12662 | 29869 ft | 392 kts | 275° |
| 2026-05-06 04:26 | 32.25210 | -109.18842 | 29855 ft | 389 kts | 275° |
| 2026-05-06 04:26 | 32.26622 | -109.25017 | 29843 ft | 390 kts | 276° |
| 2026-05-06 04:27 | 32.28556 | -109.31103 | 29845 ft | 399 kts | 282° |
| 2026-05-06 04:27 | 32.30705 | -109.37151 | 29840 ft | 399 kts | 282° |
| 2026-05-06 04:28 | 32.32827 | -109.43205 | 29848 ft | 398 kts | 282° |
| 2026-05-06 04:28 | 32.34935 | -109.49258 | 29860 ft | 397 kts | 281° |
| 2026-05-06 04:29 | 32.37033 | -109.55298 | 29844 ft | 397 kts | 281° |
| 2026-05-06 04:29 | 32.39128 | -109.61296 | 29872 ft | 397 kts | 281° |
| 2026-05-06 04:30 | 32.41225 | -109.67341 | 29865 ft | 397 kts | 281° |
| 2026-05-06 04:30 | 32.43314 | -109.73387 | 29862 ft | 397 kts | 281° |
| 2026-05-06 04:31 | 32.45408 | -109.79441 | 29863 ft | 397 kts | 281° |
| 2026-05-06 04:31 | 32.47500 | -109.85501 | 29878 ft | 398 kts | 281° |
| 2026-05-06 04:32 | 32.49594 | -109.91571 | 29871 ft | 398 kts | 281° |
| 2026-05-06 04:32 | 32.51678 | -109.97641 | 29881 ft | 398 kts | 281° |
| 2026-05-06 04:33 | 32.53764 | -110.03719 | 29882 ft | 398 kts | 281° |
| 2026-05-06 04:33 | 32.55846 | -110.09794 | 29886 ft | 398 kts | 281° |
| 2026-05-06 04:34 | 32.57920 | -110.15865 | 29919 ft | 396 kts | 281° |
| 2026-05-06 04:34 | 32.59979 | -110.21903 | 29886 ft | 395 kts | 281° |
| 2026-05-06 04:35 | 32.62034 | -110.27949 | 29870 ft | 396 kts | 281° |
| 2026-05-06 04:35 | 32.64082 | -110.34005 | 29882 ft | 395 kts | 281° |
| 2026-05-06 04:36 | 32.66135 | -110.40054 | 29879 ft | 394 kts | 281° |
| 2026-05-06 04:36 | 32.68178 | -110.46099 | 29912 ft | 395 kts | 281° |
| 2026-05-06 04:37 | 32.70229 | -110.52143 | 29894 ft | 394 kts | 281° |
| 2026-05-06 04:37 | 32.72267 | -110.58181 | 29888 ft | 394 kts | 281° |
| 2026-05-06 04:38 | 32.74299 | -110.64225 | 29911 ft | 394 kts | 280° |
| 2026-05-06 04:38 | 32.76323 | -110.70258 | 29899 ft | 393 kts | 280° |
| 2026-05-06 04:39 | 32.78003 | -110.75270 | 29895 ft | 393 kts | 280° |
| 2026-05-06 04:39 | 32.80030 | -110.81304 | 29931 ft | 393 kts | 280° |
| 2026-05-06 04:40 | 32.82044 | -110.87335 | 29900 ft | 392 kts | 280° |
| 2026-05-06 04:40 | 32.83715 | -110.92341 | 29893 ft | 392 kts | 280° |
| 2026-05-06 04:41 | 32.85706 | -110.98272 | 29892 ft | 392 kts | 280° |
| 2026-05-06 04:41 | 32.87743 | -111.04300 | 29892 ft | 393 kts | 280° |
| 2026-05-06 04:42 | 32.89758 | -111.10334 | 29925 ft | 392 kts | 280° |
| 2026-05-06 04:42 | 32.91760 | -111.16359 | 29922 ft | 391 kts | 279° |
| 2026-05-06 04:43 | 32.93748 | -111.22372 | 29897 ft | 390 kts | 279° |
| 2026-05-06 04:43 | 32.95734 | -111.28391 | 29893 ft | 390 kts | 279° |
| 2026-05-06 04:44 | 32.97719 | -111.34410 | 29877 ft | 391 kts | 279° |
| 2026-05-06 04:44 | 32.99700 | -111.40430 | 29879 ft | 390 kts | 279° |
| 2026-05-06 04:45 | 33.01679 | -111.46447 | 29893 ft | 390 kts | 279° |
| 2026-05-06 04:45 | 33.03639 | -111.52425 | 29891 ft | 390 kts | 279° |
| 2026-05-06 04:46 | 33.05608 | -111.58447 | 29917 ft | 390 kts | 279° |
| 2026-05-06 04:46 | 33.07574 | -111.64468 | 29932 ft | 390 kts | 279° |
| 2026-05-06 04:47 | 33.09533 | -111.70495 | 29941 ft | 389 kts | 279° |
| 2026-05-06 04:47 | 33.11494 | -111.76520 | 29957 ft | 390 kts | 279° |
| 2026-05-06 04:48 | 33.13452 | -111.82550 | 29987 ft | 390 kts | 280° |
| 2026-05-06 04:48 | 33.15409 | -111.88586 | 29979 ft | 390 kts | 280° |
| 2026-05-06 04:49 | 33.17361 | -111.94622 | 29973 ft | 390 kts | 280° |
| 2026-05-06 04:49 | 33.19306 | -112.00665 | 29967 ft | 390 kts | 280° |
| 2026-05-06 04:50 | 33.21256 | -112.06705 | 29952 ft | 390 kts | 280° |
| 2026-05-06 04:50 | 33.23207 | -112.12776 | 29941 ft | 396 kts | 281° |
| 2026-05-06 04:51 | 33.25202 | -112.19004 | 29942 ft | 405 kts | 283° |
| 2026-05-06 04:51 | 33.27220 | -112.25284 | 29951 ft | 403 kts | 282° |
| 2026-05-06 04:52 | 33.29211 | -112.31526 | 29953 ft | 402 kts | 282° |
| 2026-05-06 04:52 | 33.31205 | -112.37787 | 29978 ft | 405 kts | 282° |
| 2026-05-06 04:53 | 33.33208 | -112.44095 | 29978 ft | 406 kts | 282° |
| 2026-05-06 04:53 | 33.35203 | -112.50376 | 29967 ft | 407 kts | 283° |
| 2026-05-06 04:54 | 33.37207 | -112.56715 | 29988 ft | 407 kts | 283° |
| 2026-05-06 04:54 | 33.39228 | -112.63135 | 30009 ft | 418 kts | 285° |
| 2026-05-06 04:55 | 33.41288 | -112.69643 | 29994 ft | 418 kts | 285° |
| 2026-05-06 04:55 | 33.43349 | -112.76156 | 29981 ft | 419 kts | 285° |
| 2026-05-06 04:56 | 33.45422 | -112.82678 | 29963 ft | 421 kts | 287° |
| 2026-05-06 04:56 | 33.47728 | -112.89127 | 29947 ft | 421 kts | 288° |
| 2026-05-06 04:57 | 33.50041 | -112.95574 | 29931 ft | 421 kts | 287° |
| 2026-05-06 04:57 | 33.52350 | -113.02029 | 29919 ft | 421 kts | 287° |
| 2026-05-06 04:58 | 33.54666 | -113.08533 | 29911 ft | 429 kts | 289° |
| 2026-05-06 04:58 | 33.56997 | -113.15142 | 29907 ft | 431 kts | 289° |
| 2026-05-06 04:59 | 33.59348 | -113.21768 | 29903 ft | 432 kts | 289° |
| 2026-05-06 04:59 | 33.61702 | -113.28395 | 29905 ft | 432 kts | 289° |
| 2026-05-06 05:00 | 33.64043 | -113.35011 | 29906 ft | 430 kts | 289° |
| 2026-05-06 05:00 | 33.66385 | -113.41626 | 29907 ft | 431 kts | 289° |
| 2026-05-06 05:01 | 33.68726 | -113.48262 | 29956 ft | 433 kts | 289° |
| 2026-05-06 05:01 | 33.71066 | -113.54921 | 29960 ft | 433 kts | 289° |
| 2026-05-06 05:02 | 33.73402 | -113.61589 | 29954 ft | 433 kts | 289° |
| 2026-05-06 05:02 | 33.75741 | -113.68250 | 29918 ft | 432 kts | 289° |
| 2026-05-06 05:03 | 33.78068 | -113.74901 | 29910 ft | 432 kts | 289° |
| 2026-05-06 05:03 | 33.80393 | -113.81571 | 29910 ft | 433 kts | 289° |
| 2026-05-06 05:04 | 33.82668 | -113.88270 | 29919 ft | 433 kts | 289° |
| 2026-05-06 05:04 | 33.84956 | -113.95036 | 29915 ft | 445 kts | 291° |
| 2026-05-06 05:05 | 33.87309 | -114.01943 | 29911 ft | 446 kts | 291° |
| 2026-05-06 05:05 | 33.89642 | -114.08815 | 29906 ft | 446 kts | 291° |
| 2026-05-06 05:06 | 33.91308 | -114.15975 | 29908 ft | 445 kts | 281° |
| 2026-05-06 05:06 | 33.92532 | -114.23272 | 29905 ft | 445 kts | 281° |
| 2026-05-06 05:07 | 33.93762 | -114.30571 | 29905 ft | 445 kts | 281° |
| 2026-05-06 05:07 | 33.94997 | -114.37870 | 29898 ft | 446 kts | 281° |
| 2026-05-06 05:08 | 33.96236 | -114.45222 | 29900 ft | 450 kts | 281° |
| 2026-05-06 05:08 | 33.97471 | -114.52734 | 29904 ft | 464 kts | 282° |
| 2026-05-06 05:09 | 33.98740 | -114.60367 | 29896 ft | 465 kts | 283° |
| 2026-05-06 05:09 | 34.00004 | -114.67992 | 29898 ft | 463 kts | 283° |
| 2026-05-06 05:10 | 34.01263 | -114.75600 | 29901 ft | 463 kts | 283° |
| 2026-05-06 05:10 | 34.02539 | -114.83204 | 29903 ft | 463 kts | 282° |
| 2026-05-06 05:11 | 34.03795 | -114.90821 | 29899 ft | 463 kts | 282° |
| 2026-05-06 05:11 | 34.05046 | -114.98437 | 29896 ft | 463 kts | 282° |
| 2026-05-06 05:12 | 34.06285 | -115.06052 | 29899 ft | 464 kts | 282° |
| 2026-05-06 05:12 | 34.07499 | -115.13764 | 29894 ft | 478 kts | 284° |
| 2026-05-06 05:13 | 34.08766 | -115.21682 | 29897 ft | 481 kts | 284° |
| 2026-05-06 05:13 | 34.09747 | -115.27708 | 29904 ft | 481 kts | 284° |
| 2026-05-06 05:14 | 34.11071 | -115.35630 | 29895 ft | 482 kts | 284° |
| 2026-05-06 05:14 | 34.12339 | -115.43581 | 29904 ft | 483 kts | 283° |
| 2026-05-06 05:15 | 34.13561 | -115.51546 | 29901 ft | 483 kts | 284° |
| 2026-05-06 05:15 | 34.14835 | -115.59498 | 29909 ft | 483 kts | 284° |
| 2026-05-06 05:16 | 34.16055 | -115.67474 | 29910 ft | 487 kts | 279° |
| 2026-05-06 05:16 | 34.16114 | -115.71582 | 29914 ft | 493 kts | 268° |
| 2026-05-06 05:16 | 34.15753 | -115.75700 | 29916 ft | 494 kts | 265° |
| 2026-05-06 05:17 | 34.14881 | -115.84060 | 29957 ft | 506 kts | 266° |
| 2026-05-06 05:17 | 34.14049 | -115.92499 | 29986 ft | 506 kts | 266° |
| 2026-05-06 05:18 | 34.13221 | -116.00971 | 29999 ft | 512 kts | 266° |
| 2026-05-06 05:18 | 34.12378 | -116.09522 | 30021 ft | 513 kts | 266° |
| 2026-05-06 05:19 | 34.11530 | -116.18065 | 30022 ft | 513 kts | 266° |
| 2026-05-06 05:19 | 34.10684 | -116.26616 | 29947 ft | 513 kts | 266° |
| 2026-05-06 05:20 | 34.09816 | -116.35131 | 29744 ft | 507 kts | 266° |
| 2026-05-06 05:20 | 34.09367 | -116.39330 | 29371 ft | 513 kts | 265° |
| 2026-05-06 05:20 | 34.08902 | -116.43602 | 29070 ft | 513 kts | 265° |
| 2026-05-06 05:20 | 34.08430 | -116.47920 | 28634 ft | 509 kts | 265° |
| 2026-05-06 05:21 | 34.07979 | -116.52055 | 27996 ft | 500 kts | 265° |
| 2026-05-06 05:21 | 34.07534 | -116.56176 | 27318 ft | 492 kts | 265° |
| 2026-05-06 05:21 | 34.07117 | -116.60229 | 26741 ft | 480 kts | 266° |
| 2026-05-06 05:21 | 34.06753 | -116.64174 | 26226 ft | 468 kts | 266° |
| 2026-05-06 05:22 | 34.06396 | -116.68032 | 25597 ft | 459 kts | 266° |
| 2026-05-06 05:22 | 34.06045 | -116.71819 | 24966 ft | 450 kts | 266° |
| 2026-05-06 05:22 | 34.05698 | -116.75532 | 24394 ft | 441 kts | 266° |
| 2026-05-06 05:22 | 34.05358 | -116.79165 | 23920 ft | 430 kts | 266° |
| 2026-05-06 05:23 | 34.05028 | -116.82687 | 23517 ft | 417 kts | 266° |
| 2026-05-06 05:23 | 34.04703 | -116.86143 | 22786 ft | 412 kts | 266° |
| 2026-05-06 05:23 | 34.03939 | -116.92874 | 21609 ft | 399 kts | 263° |
| 2026-05-06 05:24 | 34.03516 | -116.96155 | 21090 ft | 394 kts | 263° |
| 2026-05-06 05:24 | 34.03096 | -116.99392 | 20614 ft | 388 kts | 263° |
| 2026-05-06 05:24 | 34.02682 | -117.02580 | 20120 ft | 382 kts | 263° |
| 2026-05-06 05:24 | 34.02286 | -117.05728 | 19639 ft | 378 kts | 264° |
| 2026-05-06 05:25 | 34.01925 | -117.08831 | 19248 ft | 368 kts | 264° |
| 2026-05-06 05:25 | 34.01587 | -117.11832 | 18980 ft | 356 kts | 264° |
| 2026-05-06 05:25 | 34.01249 | -117.14755 | 18584 ft | 348 kts | 264° |
| 2026-05-06 05:25 | 34.00919 | -117.17628 | 18064 ft | 344 kts | 264° |
| 2026-05-06 05:26 | 34.00585 | -117.20472 | 17540 ft | 342 kts | 264° |
| 2026-05-06 05:26 | 34.00248 | -117.23299 | 16966 ft | 340 kts | 264° |
| 2026-05-06 05:26 | 34.00016 | -117.25203 | 16626 ft | 338 kts | 264° |
| 2026-05-06 05:26 | 33.99682 | -117.27995 | 16156 ft | 336 kts | 264° |
| 2026-05-06 05:27 | 33.99342 | -117.30752 | 15812 ft | 328 kts | 264° |
| 2026-05-06 05:27 | 33.99012 | -117.33431 | 15425 ft | 320 kts | 264° |
| 2026-05-06 05:27 | 33.98697 | -117.36077 | 14963 ft | 318 kts | 264° |
| 2026-05-06 05:27 | 33.98388 | -117.38707 | 14539 ft | 316 kts | 264° |
| 2026-05-06 05:28 | 33.98079 | -117.41326 | 14130 ft | 315 kts | 264° |
| 2026-05-06 05:28 | 33.97775 | -117.43895 | 13714 ft | 313 kts | 265° |
| 2026-05-06 05:28 | 33.97464 | -117.46522 | 13281 ft | 312 kts | 264° |
| 2026-05-06 05:28 | 33.97325 | -117.49080 | 12927 ft | 309 kts | 277° |
| 2026-05-06 05:29 | 33.97749 | -117.51594 | 12559 ft | 305 kts | 289° |
| 2026-05-06 05:29 | 33.98347 | -117.54037 | 12176 ft | 303 kts | 290° |
| 2026-05-06 05:29 | 33.98945 | -117.56470 | 11821 ft | 303 kts | 290° |
| 2026-05-06 05:29 | 33.99537 | -117.58908 | 11516 ft | 303 kts | 289° |
| 2026-05-06 05:30 | 34.00117 | -117.61338 | 11224 ft | 302 kts | 289° |
| 2026-05-06 05:30 | 34.00697 | -117.63769 | 10936 ft | 302 kts | 290° |
| 2026-05-06 05:30 | 34.01275 | -117.66197 | 10630 ft | 301 kts | 289° |
| 2026-05-06 05:30 | 34.01842 | -117.68626 | 10328 ft | 301 kts | 288° |
| 2026-05-06 05:31 | 34.02069 | -117.71145 | 10000 ft | 306 kts | 270° |
| 2026-05-06 05:31 | 34.01853 | -117.73694 | 9588 ft | 305 kts | 265° |
| 2026-05-06 05:31 | 34.01582 | -117.76202 | 9231 ft | 298 kts | 265° |
| 2026-05-06 05:31 | 34.01327 | -117.78642 | 8977 ft | 288 kts | 265° |
| 2026-05-06 05:32 | 34.01085 | -117.81016 | 8602 ft | 283 kts | 265° |
| 2026-05-06 05:32 | 34.00850 | -117.83359 | 8202 ft | 280 kts | 265° |
| 2026-05-06 05:32 | 34.00621 | -117.85675 | 7810 ft | 277 kts | 264° |
| 2026-05-06 05:32 | 34.00396 | -117.87960 | 7431 ft | 273 kts | 264° |
| 2026-05-06 05:33 | 34.00175 | -117.90217 | 7083 ft | 269 kts | 264° |
| 2026-05-06 05:33 | 33.99954 | -117.92403 | 6876 ft | 258 kts | 264° |
| 2026-05-06 05:33 | 33.99741 | -117.94527 | 6573 ft | 253 kts | 264° |
| 2026-05-06 05:33 | 33.99534 | -117.96612 | 6235 ft | 249 kts | 263° |
| 2026-05-06 05:34 | 33.99339 | -117.98663 | 5986 ft | 241 kts | 264° |
| 2026-05-06 05:34 | 33.99155 | -118.00638 | 5810 ft | 235 kts | 263° |
| 2026-05-06 05:34 | 33.98957 | -118.02603 | 5454 ft | 234 kts | 263° |
| 2026-05-06 05:34 | 33.98756 | -118.04531 | 5106 ft | 232 kts | 263° |
| 2026-05-06 05:35 | 33.98581 | -118.06424 | 4861 ft | 228 kts | 265° |
| 2026-05-06 05:35 | 33.98473 | -118.08269 | 4639 ft | 221 kts | 264° |
| 2026-05-06 05:35 | 33.98295 | -118.10096 | 4322 ft | 219 kts | 263° |
| 2026-05-06 05:35 | 33.98111 | -118.11912 | 3994 ft | 217 kts | 263° |
| 2026-05-06 05:36 | 33.97926 | -118.13717 | 3816 ft | 215 kts | 263° |
| 2026-05-06 05:36 | 33.97748 | -118.15462 | 3664 ft | 206 kts | 263° |
| 2026-05-06 05:36 | 33.97572 | -118.17175 | 3662 ft | 206 kts | 263° |
| 2026-05-06 05:36 | 33.97396 | -118.18889 | 3532 ft | 206 kts | 263° |
| 2026-05-06 05:37 | 33.97223 | -118.20578 | 3308 ft | 200 kts | 263° |
| 2026-05-06 05:37 | 33.97058 | -118.22182 | 3062 ft | 196 kts | 263° |
| 2026-05-06 05:37 | 33.96892 | -118.23806 | 2806 ft | 195 kts | 263° |
| 2026-05-06 05:37 | 33.96726 | -118.25426 | 2547 ft | 192 kts | 263° |
| 2026-05-06 05:38 | 33.96566 | -118.26980 | 2354 ft | 185 kts | 262° |
| 2026-05-06 05:38 | 33.96412 | -118.28483 | 2099 ft | 177 kts | 262° |
| 2026-05-06 05:38 | 33.96263 | -118.29931 | 1839 ft | 173 kts | 262° |
| 2026-05-06 05:38 | 33.96121 | -118.31315 | 1617 ft | 162 kts | 262° |
| 2026-05-06 05:39 | 33.95985 | -118.32633 | 1381 ft | 155 kts | 262° |
| 2026-05-06 05:39 | 33.95865 | -118.33812 | 1172 ft | 130 kts | 261° |
| 2026-05-06 05:39 | 33.95756 | -118.34865 | 997 ft | 126 kts | 261° |
| 2026-05-06 05:39 | 33.95649 | -118.35908 | 836 ft | 125 kts | 262° |
| 2026-05-06 05:40 | 33.95546 | -118.36916 | 678 ft | 124 kts | 262° |
| 2026-05-06 05:40 | 33.95440 | -118.37948 | 511 ft | 121 kts | 262° |
| 2026-05-06 05:40 | 33.95339 | -118.38957 | 332 ft | 123 kts | 262° |
| 2026-05-06 05:40 | 33.95235 | -118.39971 | 199 ft | 124 kts | 262° |
| 2026-05-06 05:41 | 33.95131 | -118.40994 | 98 ft | 117 kts | 263° |
| 2026-05-06 05:41 | 33.95049 | -118.41764 | 101 ft | 65 kts | 262° |
| 2026-05-06 05:41 | 33.95008 | -118.42061 | 99 ft | 6 kts | 250° |
| 2026-05-06 05:41 | 33.94966 | -118.42170 | 100 ft | 19 kts | 223° |
| 2026-05-06 05:42 | 33.94885 | -118.42251 | 100 ft | 7 kts | 220° |
| 2026-05-06 05:42 | 33.94878 | -118.42258 | 101 ft | 3 kts | 219° |
| 2026-05-06 05:42 | 33.94823 | -118.42279 | 102 ft | 12 kts | 187° |
| 2026-05-06 05:42 | 33.94731 | -118.42280 | 100 ft | 15 kts | 167° |
| 2026-05-06 05:43 | 33.94688 | -118.42179 | 102 ft | 16 kts | 82° |
| 2026-05-06 05:43 | 33.94704 | -118.42036 | 101 ft | 19 kts | 82° |
| 2026-05-06 05:43 | 33.94720 | -118.41869 | 99 ft | 21 kts | 84° |
| 2026-05-06 05:43 | 33.94737 | -118.41681 | 99 ft | 21 kts | 82° |
| 2026-05-06 05:44 | 33.94757 | -118.41505 | 100 ft | 23 kts | 82° |
| 2026-05-06 05:44 | 33.94790 | -118.41335 | 103 ft | 21 kts | 82° |
| 2026-05-06 05:44 | 33.94807 | -118.41146 | 101 ft | 24 kts | 82° |
| 2026-05-06 05:44 | 33.94828 | -118.40945 | 101 ft | 20 kts | 83° |
| 2026-05-06 05:45 | 33.94844 | -118.40778 | 100 ft | 22 kts | 83° |
| 2026-05-06 05:45 | 33.94858 | -118.40632 | 100 ft | 7 kts | 86° |
| 2026-05-06 05:45 | 33.94813 | -118.40597 | 101 ft | 10 kts | 162° |
| 2026-05-06 05:45 | 33.94787 | -118.40520 | 99 ft | 10 kts | 87° |
| 2026-05-06 05:46 | 33.94778 | -118.40466 | 98 ft | 1 kts | 163° |
| 2026-05-06 05:46 | 33.94769 | -118.40461 | 102 ft | 3 kts | 152° |
| 2026-05-06 05:46 | 33.94745 | -118.40448 | 98 ft | 3 kts | 163° |
| 2026-05-06 05:46 | 33.94733 | -118.40444 | 100 ft | 1 kts | 163° |
| 2026-05-06 05:47 | 33.94729 | -118.40442 | 98 ft | 0 kts | 163° |